Archival Weather

Rochelle Muni/Koritz Fld

Rochelle, Illinois (KRPJ)

Report from: Sunday, February 5, 2023 5:15 AM CST
Current time: Tuesday, July 16, 2024 4:29 AM CDT

Current weather – Weather history – Daily summaries
Weather forecast

Temperature-2.5°C (27.5°F)
Wind chill-7.4°C (18.6°F)
Dew point-3.0°C (26.6°F)
Winds 8 kts (4.1 m/s, 9.2 mph) South-Southwest (210°)
Visibility10 mi. (16.1 km)
Clouds Sky clear
Altimeter29.84 in.Hg (1010 mB)
Relative humidity96 %
Density altitude-1,981 ft. (-604 m)
Remarks Fully automated report
Automated weather observing station with precipitation discriminator
Lightning detection system not operating
Flight conditions Visual Meteorological Conditions
Raw dataKRPJ 051115Z AUTO 21008KT 10SM CLR M02/M03 A2984 RMK AO2 T10251030 TSNO
An error has occurred. This application may no longer respond until reloaded. Reload 🗙